sensor_id;sensor_type;location;lat;lon;timestamp;temperature;humidity
27004;DHT22;14546;47.590;19.022;2023-07-28T00:01:25;18.10;71.90
27004;DHT22;14546;47.590;19.022;2023-07-28T00:03:50;18.10;71.60
27004;DHT22;14546;47.590;19.022;2023-07-28T00:06:16;18.20;71.70
27004;DHT22;14546;47.590;19.022;2023-07-28T00:08:42;18.20;71.70
27004;DHT22;14546;47.590;19.022;2023-07-28T00:11:12;18.20;71.60
27004;DHT22;14546;47.590;19.022;2023-07-28T00:13:39;18.20;71.60
27004;DHT22;14546;47.590;19.022;2023-07-28T00:16:05;18.20;71.20
27004;DHT22;14546;47.590;19.022;2023-07-28T00:18:31;18.20;71.00
27004;DHT22;14546;47.590;19.022;2023-07-28T00:20:56;18.30;71.10
27004;DHT22;14546;47.590;19.022;2023-07-28T00:23:22;18.30;71.00
27004;DHT22;14546;47.590;19.022;2023-07-28T00:25:48;18.30;70.60
27004;DHT22;14546;47.590;19.022;2023-07-28T00:28:13;18.30;70.10
27004;DHT22;14546;47.590;19.022;2023-07-28T00:30:39;18.40;69.80
27004;DHT22;14546;47.590;19.022;2023-07-28T00:33:05;18.40;69.60
27004;DHT22;14546;47.590;19.022;2023-07-28T00:35:31;18.50;69.30
27004;DHT22;14546;47.590;19.022;2023-07-28T00:37:56;18.50;69.30
27004;DHT22;14546;47.590;19.022;2023-07-28T00:40:22;18.50;69.20
27004;DHT22;14546;47.590;19.022;2023-07-28T00:42:48;18.50;69.00
27004;DHT22;14546;47.590;19.022;2023-07-28T00:45:14;18.50;69.00
27004;DHT22;14546;47.590;19.022;2023-07-28T00:47:40;18.50;68.60
27004;DHT22;14546;47.590;19.022;2023-07-28T00:50:08;18.60;68.40
27004;DHT22;14546;47.590;19.022;2023-07-28T00:52:34;18.60;68.40
27004;DHT22;14546;47.590;19.022;2023-07-28T00:55:00;18.60;68.70
27004;DHT22;14546;47.590;19.022;2023-07-28T00:57:26;18.60;69.00
27004;DHT22;14546;47.590;19.022;2023-07-28T00:59:52;18.60;69.20
27004;DHT22;14546;47.590;19.022;2023-07-28T01:02:19;18.60;69.20
27004;DHT22;14546;47.590;19.022;2023-07-28T01:04:45;18.60;69.10
27004;DHT22;14546;47.590;19.022;2023-07-28T01:10:26;18.60;69.80
27004;DHT22;14546;47.590;19.022;2023-07-28T01:12:53;18.60;69.40
27004;DHT22;14546;47.590;19.022;2023-07-28T01:15:19;18.60;69.40
27004;DHT22;14546;47.590;19.022;2023-07-28T01:17:45;18.60;69.20
27004;DHT22;14546;47.590;19.022;2023-07-28T01:20:11;18.60;68.90
27004;DHT22;14546;47.590;19.022;2023-07-28T01:22:47;18.60;68.60
27004;DHT22;14546;47.590;19.022;2023-07-28T01:28:00;18.70;67.80
27004;DHT22;14546;47.590;19.022;2023-07-28T01:30:27;18.70;67.30
27004;DHT22;14546;47.590;19.022;2023-07-28T01:32:57;18.80;67.10
27004;DHT22;14546;47.590;19.022;2023-07-28T01:35:24;18.80;66.90
27004;DHT22;14546;47.590;19.022;2023-07-28T01:37:50;18.80;66.70
27004;DHT22;14546;47.590;19.022;2023-07-28T01:40:20;18.80;66.60
27004;DHT22;14546;47.590;19.022;2023-07-28T01:42:46;18.90;66.70
27004;DHT22;14546;47.590;19.022;2023-07-28T01:45:12;18.90;66.60
27004;DHT22;14546;47.590;19.022;2023-07-28T01:47:37;18.90;66.50
27004;DHT22;14546;47.590;19.022;2023-07-28T01:50:03;19.00;66.60
27004;DHT22;14546;47.590;19.022;2023-07-28T01:52:29;19.00;66.90
27004;DHT22;14546;47.590;19.022;2023-07-28T01:54:55;19.00;67.30
27004;DHT22;14546;47.590;19.022;2023-07-28T01:57:20;18.90;67.20
27004;DHT22;14546;47.590;19.022;2023-07-28T01:59:46;19.00;66.80
27004;DHT22;14546;47.590;19.022;2023-07-28T02:02:12;19.00;66.80
27004;DHT22;14546;47.590;19.022;2023-07-28T02:04:37;19.00;67.00
27004;DHT22;14546;47.590;19.022;2023-07-28T02:07:03;19.00;67.20
27004;DHT22;14546;47.590;19.022;2023-07-28T02:09:29;19.00;67.30
27004;DHT22;14546;47.590;19.022;2023-07-28T02:11:54;19.00;67.50
27004;DHT22;14546;47.590;19.022;2023-07-28T02:14:20;18.90;67.70
27004;DHT22;14546;47.590;19.022;2023-07-28T02:16:46;18.90;68.00
27004;DHT22;14546;47.590;19.022;2023-07-28T02:19:11;18.90;68.10
27004;DHT22;14546;47.590;19.022;2023-07-28T02:21:37;18.80;68.30
27004;DHT22;14546;47.590;19.022;2023-07-28T02:24:02;18.80;69.10
27004;DHT22;14546;47.590;19.022;2023-07-28T02:26:28;18.80;68.70
27004;DHT22;14546;47.590;19.022;2023-07-28T02:28:54;18.80;69.00
27004;DHT22;14546;47.590;19.022;2023-07-28T02:31:19;18.80;69.20
27004;DHT22;14546;47.590;19.022;2023-07-28T02:33:45;18.70;69.20
27004;DHT22;14546;47.590;19.022;2023-07-28T02:36:11;18.70;69.20
27004;DHT22;14546;47.590;19.022;2023-07-28T02:38:36;18.70;69.40
27004;DHT22;14546;47.590;19.022;2023-07-28T02:41:02;18.70;69.50
27004;DHT22;14546;47.590;19.022;2023-07-28T02:43:29;18.70;69.50
27004;DHT22;14546;47.590;19.022;2023-07-28T02:45:57;18.70;69.80
27004;DHT22;14546;47.590;19.022;2023-07-28T02:48:23;18.70;70.00
27004;DHT22;14546;47.590;19.022;2023-07-28T02:50:50;18.70;70.00
27004;DHT22;14546;47.590;19.022;2023-07-28T02:53:16;18.70;70.10
27004;DHT22;14546;47.590;19.022;2023-07-28T02:55:45;18.70;70.00
27004;DHT22;14546;47.590;19.022;2023-07-28T02:58:11;18.70;69.80
27004;DHT22;14546;47.590;19.022;2023-07-28T03:00:41;18.70;70.00
27004;DHT22;14546;47.590;19.022;2023-07-28T03:03:08;18.70;70.40
27004;DHT22;14546;47.590;19.022;2023-07-28T03:05:39;18.60;70.80
27004;DHT22;14546;47.590;19.022;2023-07-28T03:08:05;18.60;71.60
27004;DHT22;14546;47.590;19.022;2023-07-28T03:10:31;18.60;72.10
27004;DHT22;14546;47.590;19.022;2023-07-28T03:12:57;18.60;72.20
27004;DHT22;14546;47.590;19.022;2023-07-28T03:15:23;18.60;72.20
27004;DHT22;14546;47.590;19.022;2023-07-28T03:17:49;18.50;72.40
27004;DHT22;14546;47.590;19.022;2023-07-28T03:20:15;18.50;72.40
27004;DHT22;14546;47.590;19.022;2023-07-28T03:22:41;18.50;72.80
27004;DHT22;14546;47.590;19.022;2023-07-28T03:25:07;18.40;73.10
27004;DHT22;14546;47.590;19.022;2023-07-28T03:27:33;18.40;73.20
27004;DHT22;14546;47.590;19.022;2023-07-28T03:29:59;18.40;73.50
27004;DHT22;14546;47.590;19.022;2023-07-28T03:32:25;18.40;74.10
27004;DHT22;14546;47.590;19.022;2023-07-28T03:34:51;18.40;74.00
27004;DHT22;14546;47.590;19.022;2023-07-28T03:37:16;18.40;73.50
27004;DHT22;14546;47.590;19.022;2023-07-28T03:39:42;18.40;73.40
27004;DHT22;14546;47.590;19.022;2023-07-28T03:42:07;18.40;73.60
27004;DHT22;14546;47.590;19.022;2023-07-28T03:44:33;18.30;73.30
27004;DHT22;14546;47.590;19.022;2023-07-28T03:46:59;18.40;73.40
27004;DHT22;14546;47.590;19.022;2023-07-28T03:49:25;18.40;73.70
27004;DHT22;14546;47.590;19.022;2023-07-28T03:51:51;18.40;74.00
27004;DHT22;14546;47.590;19.022;2023-07-28T03:54:16;18.40;74.30
27004;DHT22;14546;47.590;19.022;2023-07-28T03:56:42;18.40;74.00
27004;DHT22;14546;47.590;19.022;2023-07-28T03:59:07;18.40;73.70
27004;DHT22;14546;47.590;19.022;2023-07-28T04:01:33;18.40;74.50
27004;DHT22;14546;47.590;19.022;2023-07-28T04:03:59;18.50;73.80
27004;DHT22;14546;47.590;19.022;2023-07-28T04:06:42;18.50;73.80
27004;DHT22;14546;47.590;19.022;2023-07-28T04:09:08;18.50;74.10
27004;DHT22;14546;47.590;19.022;2023-07-28T04:11:34;18.50;74.00
27004;DHT22;14546;47.590;19.022;2023-07-28T04:14:00;18.50;74.10
27004;DHT22;14546;47.590;19.022;2023-07-28T04:16:26;18.50;74.00
27004;DHT22;14546;47.590;19.022;2023-07-28T04:18:51;18.40;73.70
27004;DHT22;14546;47.590;19.022;2023-07-28T04:21:17;18.50;73.60
27004;DHT22;14546;47.590;19.022;2023-07-28T04:23:43;18.40;73.20
27004;DHT22;14546;47.590;19.022;2023-07-28T04:26:09;18.50;72.70
27004;DHT22;14546;47.590;19.022;2023-07-28T04:28:34;18.50;72.70
27004;DHT22;14546;47.590;19.022;2023-07-28T04:31:00;18.50;72.90
27004;DHT22;14546;47.590;19.022;2023-07-28T04:33:26;18.50;73.20
27004;DHT22;14546;47.590;19.022;2023-07-28T04:35:52;18.50;73.40
27004;DHT22;14546;47.590;19.022;2023-07-28T04:38:17;18.50;73.50
27004;DHT22;14546;47.590;19.022;2023-07-28T04:40:44;18.60;73.90
27004;DHT22;14546;47.590;19.022;2023-07-28T04:43:10;18.60;74.50
27004;DHT22;14546;47.590;19.022;2023-07-28T04:45:35;18.60;75.00
27004;DHT22;14546;47.590;19.022;2023-07-28T04:48:01;18.60;75.20
27004;DHT22;14546;47.590;19.022;2023-07-28T04:50:27;18.60;75.30
27004;DHT22;14546;47.590;19.022;2023-07-28T04:52:53;18.60;75.30
27004;DHT22;14546;47.590;19.022;2023-07-28T04:55:18;18.70;75.30
27004;DHT22;14546;47.590;19.022;2023-07-28T04:57:44;18.70;75.10
27004;DHT22;14546;47.590;19.022;2023-07-28T05:00:10;18.80;74.80
27004;DHT22;14546;47.590;19.022;2023-07-28T05:02:36;18.80;74.50
27004;DHT22;14546;47.590;19.022;2023-07-28T05:05:01;18.90;74.30
27004;DHT22;14546;47.590;19.022;2023-07-28T05:07:27;18.90;73.80
27004;DHT22;14546;47.590;19.022;2023-07-28T05:09:54;19.00;73.00
27004;DHT22;14546;47.590;19.022;2023-07-28T05:12:20;19.10;71.80
27004;DHT22;14546;47.590;19.022;2023-07-28T05:14:46;19.20;70.90
27004;DHT22;14546;47.590;19.022;2023-07-28T05:17:12;19.30;70.80
27004;DHT22;14546;47.590;19.022;2023-07-28T05:19:37;19.40;71.10
27004;DHT22;14546;47.590;19.022;2023-07-28T05:22:03;19.50;71.10
27004;DHT22;14546;47.590;19.022;2023-07-28T05:24:32;19.60;71.50
27004;DHT22;14546;47.590;19.022;2023-07-28T05:26:57;19.70;71.70
27004;DHT22;14546;47.590;19.022;2023-07-28T05:29:23;19.70;71.70
27004;DHT22;14546;47.590;19.022;2023-07-28T05:31:48;19.80;72.00
27004;DHT22;14546;47.590;19.022;2023-07-28T05:34:14;19.90;71.70
27004;DHT22;14546;47.590;19.022;2023-07-28T05:36:40;19.90;70.70
27004;DHT22;14546;47.590;19.022;2023-07-28T05:39:05;20.00;70.00
27004;DHT22;14546;47.590;19.022;2023-07-28T06:05:52;20.00;70.00
27004;DHT22;14546;47.590;19.022;2023-07-28T06:08:18;20.70;64.20
27004;DHT22;14546;47.590;19.022;2023-07-28T06:10:43;20.60;63.50
27004;DHT22;14546;47.590;19.022;2023-07-28T06:13:09;20.70;64.50
27004;DHT22;14546;47.590;19.022;2023-07-28T06:15:34;20.60;62.90
27004;DHT22;14546;47.590;19.022;2023-07-28T06:18:01;20.70;62.80
27004;DHT22;14546;47.590;19.022;2023-07-28T06:20:28;20.70;62.70
27004;DHT22;14546;47.590;19.022;2023-07-28T06:22:54;20.70;62.40
27004;DHT22;14546;47.590;19.022;2023-07-28T06:25:20;20.80;62.50
27004;DHT22;14546;47.590;19.022;2023-07-28T06:27:46;20.80;62.20
27004;DHT22;14546;47.590;19.022;2023-07-28T06:30:12;20.80;61.90
27004;DHT22;14546;47.590;19.022;2023-07-28T06:32:38;20.90;62.00
27004;DHT22;14546;47.590;19.022;2023-07-28T06:35:04;21.00;61.70
27004;DHT22;14546;47.590;19.022;2023-07-28T06:37:30;21.10;61.40
27004;DHT22;14546;47.590;19.022;2023-07-28T06:39:56;21.10;61.00
27004;DHT22;14546;47.590;19.022;2023-07-28T06:42:22;21.20;61.10
27004;DHT22;14546;47.590;19.022;2023-07-28T06:44:50;21.20;61.10
27004;DHT22;14546;47.590;19.022;2023-07-28T06:47:16;21.30;61.20
27004;DHT22;14546;47.590;19.022;2023-07-28T06:49:42;21.30;60.80
27004;DHT22;14546;47.590;19.022;2023-07-28T06:52:08;21.40;60.90
27004;DHT22;14546;47.590;19.022;2023-07-28T06:54:34;21.50;60.50
27004;DHT22;14546;47.590;19.022;2023-07-28T06:56:59;21.50;60.40
27004;DHT22;14546;47.590;19.022;2023-07-28T06:59:25;21.50;60.50
27004;DHT22;14546;47.590;19.022;2023-07-28T07:01:51;21.50;60.20
27004;DHT22;14546;47.590;19.022;2023-07-28T07:04:17;21.50;60.10
27004;DHT22;14546;47.590;19.022;2023-07-28T07:31:04;21.50;60.40
27004;DHT22;14546;47.590;19.022;2023-07-28T07:33:29;22.70;57.90
27004;DHT22;14546;47.590;19.022;2023-07-28T07:35:55;22.70;58.20
27004;DHT22;14546;47.590;19.022;2023-07-28T07:38:20;22.70;57.70
27004;DHT22;14546;47.590;19.022;2023-07-28T07:40:47;22.70;57.40
27004;DHT22;14546;47.590;19.022;2023-07-28T07:43:13;22.80;57.50
27004;DHT22;14546;47.590;19.022;2023-07-28T07:45:44;22.80;57.30
27004;DHT22;14546;47.590;19.022;2023-07-28T07:48:12;22.80;56.90
27004;DHT22;14546;47.590;19.022;2023-07-28T07:50:38;22.80;56.90
27004;DHT22;14546;47.590;19.022;2023-07-28T07:53:03;22.80;56.60
27004;DHT22;14546;47.590;19.022;2023-07-28T07:55:30;22.80;56.90
27004;DHT22;14546;47.590;19.022;2023-07-28T07:57:57;22.90;57.00
27004;DHT22;14546;47.590;19.022;2023-07-28T08:00:23;23.10;56.90
27004;DHT22;14546;47.590;19.022;2023-07-28T08:02:49;23.10;56.70
27004;DHT22;14546;47.590;19.022;2023-07-28T08:05:15;23.10;56.40
27004;DHT22;14546;47.590;19.022;2023-07-28T08:07:41;23.20;56.90
27004;DHT22;14546;47.590;19.022;2023-07-28T08:10:07;23.20;57.00
27004;DHT22;14546;47.590;19.022;2023-07-28T08:12:33;23.30;56.60
27004;DHT22;14546;47.590;19.022;2023-07-28T08:24:43;23.30;56.60
27004;DHT22;14546;47.590;19.022;2023-07-28T08:27:09;23.50;56.10
27004;DHT22;14546;47.590;19.022;2023-07-28T08:29:35;23.50;56.20
27004;DHT22;14546;47.590;19.022;2023-07-28T08:32:01;23.40;55.80
27004;DHT22;14546;47.590;19.022;2023-07-28T08:34:27;23.40;56.00
27004;DHT22;14546;47.590;19.022;2023-07-28T08:36:53;23.40;56.20
27004;DHT22;14546;47.590;19.022;2023-07-28T08:39:18;23.50;56.50
27004;DHT22;14546;47.590;19.022;2023-07-28T08:41:44;23.60;56.20
27004;DHT22;14546;47.590;19.022;2023-07-28T08:44:09;23.60;55.80
27004;DHT22;14546;47.590;19.022;2023-07-28T08:46:35;23.60;55.60
27004;DHT22;14546;47.590;19.022;2023-07-28T08:49:02;23.50;55.70
27004;DHT22;14546;47.590;19.022;2023-07-28T08:51:27;23.60;56.40
27004;DHT22;14546;47.590;19.022;2023-07-28T16:31:25;29.30;47.80
27004;DHT22;14546;47.590;19.022;2023-07-28T16:33:51;22.00;81.60
27004;DHT22;14546;47.590;19.022;2023-07-28T16:36:17;21.30;83.00
27004;DHT22;14546;47.590;19.022;2023-07-28T16:38:42;21.10;84.60
27004;DHT22;14546;47.590;19.022;2023-07-28T16:43:34;20.90;86.10
27004;DHT22;14546;47.590;19.022;2023-07-28T16:46:00;20.90;88.60
27004;DHT22;14546;47.590;19.022;2023-07-28T16:48:26;20.90;89.70
27004;DHT22;14546;47.590;19.022;2023-07-28T16:50:52;21.00;90.30
27004;DHT22;14546;47.590;19.022;2023-07-28T16:53:18;21.00;90.60
27004;DHT22;14546;47.590;19.022;2023-07-28T16:55:45;21.00;90.80
27004;DHT22;14546;47.590;19.022;2023-07-28T16:58:11;21.10;91.20
27004;DHT22;14546;47.590;19.022;2023-07-28T17:00:37;21.00;91.30
27004;DHT22;14546;47.590;19.022;2023-07-28T17:03:02;21.00;91.60
27004;DHT22;14546;47.590;19.022;2023-07-28T17:05:28;21.00;91.70
27004;DHT22;14546;47.590;19.022;2023-07-28T17:07:54;21.00;91.80
27004;DHT22;14546;47.590;19.022;2023-07-28T17:10:20;21.00;91.90
27004;DHT22;14546;47.590;19.022;2023-07-28T17:12:46;20.90;92.10
27004;DHT22;14546;47.590;19.022;2023-07-28T17:15:13;20.90;92.30
27004;DHT22;14546;47.590;19.022;2023-07-28T17:17:38;20.90;92.40
27004;DHT22;14546;47.590;19.022;2023-07-28T17:20:05;20.90;92.50
27004;DHT22;14546;47.590;19.022;2023-07-28T17:22:31;20.80;92.80
27004;DHT22;14546;47.590;19.022;2023-07-28T17:24:59;20.70;92.90
27004;DHT22;14546;47.590;19.022;2023-07-28T17:27:25;20.70;93.00
27004;DHT22;14546;47.590;19.022;2023-07-28T17:29:51;20.60;93.20
27004;DHT22;14546;47.590;19.022;2023-07-28T17:32:17;20.60;93.50
27004;DHT22;14546;47.590;19.022;2023-07-28T17:34:43;20.60;93.80
27004;DHT22;14546;47.590;19.022;2023-07-28T17:37:09;20.60;94.20
27004;DHT22;14546;47.590;19.022;2023-07-28T17:39:34;20.60;94.40
27004;DHT22;14546;47.590;19.022;2023-07-28T17:42:00;20.60;94.50
27004;DHT22;14546;47.590;19.022;2023-07-28T17:44:25;20.70;94.70
27004;DHT22;14546;47.590;19.022;2023-07-28T17:46:51;20.70;95.20
27004;DHT22;14546;47.590;19.022;2023-07-28T17:49:17;20.70;95.10
27004;DHT22;14546;47.590;19.022;2023-07-28T17:51:43;20.60;95.20
27004;DHT22;14546;47.590;19.022;2023-07-28T17:54:08;20.70;95.40
27004;DHT22;14546;47.590;19.022;2023-07-28T17:56:34;20.70;95.70
27004;DHT22;14546;47.590;19.022;2023-07-28T17:59:00;20.70;95.90
27004;DHT22;14546;47.590;19.022;2023-07-28T18:01:26;20.70;96.10
27004;DHT22;14546;47.590;19.022;2023-07-28T18:03:52;20.70;96.20
27004;DHT22;14546;47.590;19.022;2023-07-28T18:06:20;20.70;96.50
27004;DHT22;14546;47.590;19.022;2023-07-28T18:08:45;20.70;96.40
27004;DHT22;14546;47.590;19.022;2023-07-28T18:11:11;20.70;96.40
27004;DHT22;14546;47.590;19.022;2023-07-28T18:13:37;20.70;96.70
27004;DHT22;14546;47.590;19.022;2023-07-28T18:16:04;20.70;97.00
27004;DHT22;14546;47.590;19.022;2023-07-28T18:18:30;20.70;97.10
27004;DHT22;14546;47.590;19.022;2023-07-28T18:20:56;20.80;97.30
27004;DHT22;14546;47.590;19.022;2023-07-28T18:23:22;20.80;97.40
27004;DHT22;14546;47.590;19.022;2023-07-28T18:25:48;20.80;97.40
27004;DHT22;14546;47.590;19.022;2023-07-28T18:28:13;20.80;97.50
27004;DHT22;14546;47.590;19.022;2023-07-28T18:30:39;20.80;97.40
27004;DHT22;14546;47.590;19.022;2023-07-28T18:33:06;20.80;97.40
27004;DHT22;14546;47.590;19.022;2023-07-28T18:35:33;20.80;97.40
27004;DHT22;14546;47.590;19.022;2023-07-28T18:37:59;20.80;97.40
27004;DHT22;14546;47.590;19.022;2023-07-28T18:40:26;20.70;97.80
27004;DHT22;14546;47.590;19.022;2023-07-28T18:42:52;20.70;97.50
27004;DHT22;14546;47.590;19.022;2023-07-28T18:45:18;20.60;97.50
27004;DHT22;14546;47.590;19.022;2023-07-28T18:47:43;20.60;97.60
27004;DHT22;14546;47.590;19.022;2023-07-28T18:50:10;20.60;97.60
27004;DHT22;14546;47.590;19.022;2023-07-28T18:52:35;20.60;97.70
27004;DHT22;14546;47.590;19.022;2023-07-28T18:55:01;20.50;97.90
27004;DHT22;14546;47.590;19.022;2023-07-28T18:57:28;20.50;97.90
27004;DHT22;14546;47.590;19.022;2023-07-28T18:59:54;20.40;98.10
27004;DHT22;14546;47.590;19.022;2023-07-28T19:02:20;20.40;98.20
27004;DHT22;14546;47.590;19.022;2023-07-28T19:04:46;20.40;98.20
27004;DHT22;14546;47.590;19.022;2023-07-28T19:07:13;20.30;98.30
27004;DHT22;14546;47.590;19.022;2023-07-28T19:09:40;20.30;98.50
27004;DHT22;14546;47.590;19.022;2023-07-28T19:12:06;20.30;98.70
27004;DHT22;14546;47.590;19.022;2023-07-28T19:14:32;20.30;98.80
27004;DHT22;14546;47.590;19.022;2023-07-28T19:16:57;20.30;99.00
27004;DHT22;14546;47.590;19.022;2023-07-28T19:19:23;20.30;99.10
27004;DHT22;14546;47.590;19.022;2023-07-28T19:21:49;20.30;99.20
27004;DHT22;14546;47.590;19.022;2023-07-28T19:24:18;20.30;99.30
27004;DHT22;14546;47.590;19.022;2023-07-28T19:26:45;20.30;99.30
27004;DHT22;14546;47.590;19.022;2023-07-28T19:29:10;20.20;99.40
27004;DHT22;14546;47.590;19.022;2023-07-28T19:31:37;20.20;99.40
27004;DHT22;14546;47.590;19.022;2023-07-28T19:34:03;20.20;99.50
27004;DHT22;14546;47.590;19.022;2023-07-28T19:36:29;20.20;99.70
27004;DHT22;14546;47.590;19.022;2023-07-28T19:38:55;20.20;99.80
27004;DHT22;14546;47.590;19.022;2023-07-28T19:41:22;20.10;99.70
27004;DHT22;14546;47.590;19.022;2023-07-28T19:43:49;20.10;99.80
27004;DHT22;14546;47.590;19.022;2023-07-28T19:46:15;20.10;99.90
27004;DHT22;14546;47.590;19.022;2023-07-28T19:48:41;20.10;99.90
27004;DHT22;14546;47.590;19.022;2023-07-28T19:51:07;20.00;99.90
27004;DHT22;14546;47.590;19.022;2023-07-28T19:53:34;20.10;99.90
27004;DHT22;14546;47.590;19.022;2023-07-28T19:56:00;20.00;99.90
27004;DHT22;14546;47.590;19.022;2023-07-28T19:58:26;20.00;99.90
27004;DHT22;14546;47.590;19.022;2023-07-28T20:00:53;20.00;99.90
27004;DHT22;14546;47.590;19.022;2023-07-28T20:03:19;20.00;99.90
27004;DHT22;14546;47.590;19.022;2023-07-28T20:05:45;20.00;99.90
27004;DHT22;14546;47.590;19.022;2023-07-28T20:08:12;19.90;99.90
27004;DHT22;14546;47.590;19.022;2023-07-28T20:10:38;19.90;99.90
27004;DHT22;14546;47.590;19.022;2023-07-28T20:13:04;19.90;99.90
27004;DHT22;14546;47.590;19.022;2023-07-28T20:15:30;19.90;99.90
27004;DHT22;14546;47.590;19.022;2023-07-28T20:17:56;19.90;99.90
27004;DHT22;14546;47.590;19.022;2023-07-28T20:20:22;19.90;99.90
27004;DHT22;14546;47.590;19.022;2023-07-28T20:22:48;19.90;99.90
27004;DHT22;14546;47.590;19.022;2023-07-28T20:25:22;19.90;99.90
27004;DHT22;14546;47.590;19.022;2023-07-28T20:27:49;19.90;99.90
27004;DHT22;14546;47.590;19.022;2023-07-28T20:30:15;19.90;99.90
27004;DHT22;14546;47.590;19.022;2023-07-28T20:32:44;19.90;99.90
27004;DHT22;14546;47.590;19.022;2023-07-28T20:35:10;19.90;99.90
27004;DHT22;14546;47.590;19.022;2023-07-28T20:37:36;19.90;99.90
27004;DHT22;14546;47.590;19.022;2023-07-28T20:40:02;19.90;99.90
27004;DHT22;14546;47.590;19.022;2023-07-28T20:42:29;19.90;99.90
27004;DHT22;14546;47.590;19.022;2023-07-28T20:44:56;19.90;99.90
27004;DHT22;14546;47.590;19.022;2023-07-28T20:47:22;19.90;99.90
27004;DHT22;14546;47.590;19.022;2023-07-28T20:49:48;19.90;99.90
27004;DHT22;14546;47.590;19.022;2023-07-28T20:52:14;19.80;99.90
27004;DHT22;14546;47.590;19.022;2023-07-28T20:54:41;19.80;99.90
27004;DHT22;14546;47.590;19.022;2023-07-28T20:57:07;19.80;99.90
27004;DHT22;14546;47.590;19.022;2023-07-28T20:59:33;19.80;99.90
27004;DHT22;14546;47.590;19.022;2023-07-28T21:01:59;19.80;99.90
27004;DHT22;14546;47.590;19.022;2023-07-28T21:04:25;19.90;99.90
27004;DHT22;14546;47.590;19.022;2023-07-28T21:06:51;19.80;99.90
27004;DHT22;14546;47.590;19.022;2023-07-28T21:09:16;19.80;99.90
27004;DHT22;14546;47.590;19.022;2023-07-28T21:11:42;19.80;99.90
27004;DHT22;14546;47.590;19.022;2023-07-28T21:14:07;19.80;99.90
27004;DHT22;14546;47.590;19.022;2023-07-28T21:16:33;19.90;99.90
27004;DHT22;14546;47.590;19.022;2023-07-28T21:18:59;19.90;99.90
27004;DHT22;14546;47.590;19.022;2023-07-28T21:21:24;19.90;99.90
27004;DHT22;14546;47.590;19.022;2023-07-28T21:23:51;19.80;99.90
27004;DHT22;14546;47.590;19.022;2023-07-28T21:26:16;19.80;99.90
27004;DHT22;14546;47.590;19.022;2023-07-28T21:28:42;19.80;99.90
27004;DHT22;14546;47.590;19.022;2023-07-28T21:31:08;19.80;99.90
27004;DHT22;14546;47.590;19.022;2023-07-28T21:33:33;19.90;99.90
27004;DHT22;14546;47.590;19.022;2023-07-28T21:35:59;19.90;99.90
27004;DHT22;14546;47.590;19.022;2023-07-28T21:38:25;19.80;99.90
27004;DHT22;14546;47.590;19.022;2023-07-28T21:40:50;19.90;99.90
27004;DHT22;14546;47.590;19.022;2023-07-28T21:43:16;19.80;99.90
27004;DHT22;14546;47.590;19.022;2023-07-28T21:45:42;19.80;99.90
27004;DHT22;14546;47.590;19.022;2023-07-28T21:48:08;19.80;99.90
27004;DHT22;14546;47.590;19.022;2023-07-28T21:50:33;19.70;99.90
27004;DHT22;14546;47.590;19.022;2023-07-28T21:52:59;19.70;99.90
27004;DHT22;14546;47.590;19.022;2023-07-28T21:55:24;19.70;99.90
27004;DHT22;14546;47.590;19.022;2023-07-28T21:57:50;19.60;99.90
27004;DHT22;14546;47.590;19.022;2023-07-28T22:00:16;19.60;99.90
27004;DHT22;14546;47.590;19.022;2023-07-28T22:02:41;19.50;99.90
27004;DHT22;14546;47.590;19.022;2023-07-28T22:05:07;19.50;99.90
27004;DHT22;14546;47.590;19.022;2023-07-28T22:07:34;19.50;99.90
27004;DHT22;14546;47.590;19.022;2023-07-28T22:10:00;19.50;99.90
27004;DHT22;14546;47.590;19.022;2023-07-28T22:12:26;19.50;99.90
27004;DHT22;14546;47.590;19.022;2023-07-28T22:14:52;19.50;99.90
27004;DHT22;14546;47.590;19.022;2023-07-28T22:17:18;19.50;99.90
27004;DHT22;14546;47.590;19.022;2023-07-28T22:19:44;19.40;99.90
27004;DHT22;14546;47.590;19.022;2023-07-28T22:22:10;19.40;99.90
27004;DHT22;14546;47.590;19.022;2023-07-28T22:24:35;19.40;99.90
27004;DHT22;14546;47.590;19.022;2023-07-28T22:27:01;19.30;99.90
27004;DHT22;14546;47.590;19.022;2023-07-28T22:29:27;19.30;99.90
27004;DHT22;14546;47.590;19.022;2023-07-28T22:31:52;19.30;99.90
27004;DHT22;14546;47.590;19.022;2023-07-28T22:34:18;19.30;99.90
27004;DHT22;14546;47.590;19.022;2023-07-28T22:36:44;19.30;99.90
27004;DHT22;14546;47.590;19.022;2023-07-28T22:39:09;19.30;99.90
27004;DHT22;14546;47.590;19.022;2023-07-28T22:41:35;19.30;99.90
27004;DHT22;14546;47.590;19.022;2023-07-28T22:44:01;19.30;99.90
